sensor_id;sensor_type;location;lat;lon;timestamp;P1;durP1;ratioP1;P2;durP2;ratioP2
71038;SDS011;58692;43.212;27.908;2022-07-23T00:00:07;24.70;;;9.93;;
71038;SDS011;58692;43.212;27.908;2022-07-23T00:02:33;15.40;;;8.05;;
71038;SDS011;58692;43.212;27.908;2022-07-23T00:04:59;13.87;;;7.13;;
71038;SDS011;58692;43.212;27.908;2022-07-23T00:07:24;13.83;;;6.13;;
71038;SDS011;58692;43.212;27.908;2022-07-23T00:09:50;14.68;;;6.05;;
71038;SDS011;58692;43.212;27.908;2022-07-23T00:12:15;11.63;;;5.57;;
71038;SDS011;58692;43.212;27.908;2022-07-23T00:14:41;19.45;;;6.22;;
71038;SDS011;58692;43.212;27.908;2022-07-23T00:17:07;15.10;;;5.60;;
71038;SDS011;58692;43.212;27.908;2022-07-23T00:19:32;17.23;;;5.43;;
71038;SDS011;58692;43.212;27.908;2022-07-23T00:21:58;21.47;;;5.93;;
71038;SDS011;58692;43.212;27.908;2022-07-23T00:24:23;16.17;;;5.63;;
71038;SDS011;58692;43.212;27.908;2022-07-23T00:26:49;20.33;;;5.78;;
71038;SDS011;58692;43.212;27.908;2022-07-23T00:29:14;20.07;;;5.73;;
71038;SDS011;58692;43.212;27.908;2022-07-23T00:31:40;26.47;;;6.63;;
71038;SDS011;58692;43.212;27.908;2022-07-23T00:34:06;16.52;;;5.65;;
71038;SDS011;58692;43.212;27.908;2022-07-23T00:36:32;18.80;;;5.60;;
71038;SDS011;58692;43.212;27.908;2022-07-23T00:38:58;19.05;;;5.50;;
71038;SDS011;58692;43.212;27.908;2022-07-23T00:41:23;16.40;;;5.10;;
71038;SDS011;58692;43.212;27.908;2022-07-23T00:43:49;17.40;;;5.57;;
71038;SDS011;58692;43.212;27.908;2022-07-23T00:46:22;19.05;;;5.55;;
71038;SDS011;58692;43.212;27.908;2022-07-23T00:48:48;20.05;;;5.32;;
71038;SDS011;58692;43.212;27.908;2022-07-23T00:51:15;19.67;;;5.60;;
71038;SDS011;58692;43.212;27.908;2022-07-23T00:53:41;15.63;;;5.40;;
71038;SDS011;58692;43.212;27.908;2022-07-23T00:56:07;16.33;;;5.38;;
71038;SDS011;58692;43.212;27.908;2022-07-23T00:58:33;18.33;;;5.80;;
71038;SDS011;58692;43.212;27.908;2022-07-23T01:01:00;16.48;;;5.57;;
71038;SDS011;58692;43.212;27.908;2022-07-23T01:03:26;17.67;;;5.40;;
71038;SDS011;58692;43.212;27.908;2022-07-23T01:05:51;18.90;;;5.57;;
71038;SDS011;58692;43.212;27.908;2022-07-23T01:08:18;20.50;;;4.80;;
71038;SDS011;58692;43.212;27.908;2022-07-23T01:10:43;19.58;;;4.70;;
71038;SDS011;58692;43.212;27.908;2022-07-23T01:13:09;19.80;;;4.90;;
71038;SDS011;58692;43.212;27.908;2022-07-23T01:15:35;18.17;;;5.15;;
71038;SDS011;58692;43.212;27.908;2022-07-23T01:18:02;18.55;;;5.25;;
71038;SDS011;58692;43.212;27.908;2022-07-23T01:20:29;13.50;;;5.25;;
71038;SDS011;58692;43.212;27.908;2022-07-23T01:22:55;17.80;;;5.10;;
71038;SDS011;58692;43.212;27.908;2022-07-23T01:25:21;16.02;;;5.00;;
71038;SDS011;58692;43.212;27.908;2022-07-23T01:27:47;16.92;;;5.28;;
71038;SDS011;58692;43.212;27.908;2022-07-23T01:30:13;18.37;;;5.10;;
71038;SDS011;58692;43.212;27.908;2022-07-23T01:32:39;19.08;;;4.68;;
71038;SDS011;58692;43.212;27.908;2022-07-23T01:35:06;17.05;;;5.00;;
71038;SDS011;58692;43.212;27.908;2022-07-23T01:37:32;16.13;;;4.90;;
71038;SDS011;58692;43.212;27.908;2022-07-23T01:39:57;17.57;;;5.30;;
71038;SDS011;58692;43.212;27.908;2022-07-23T01:42:23;15.50;;;5.07;;
71038;SDS011;58692;43.212;27.908;2022-07-23T01:44:49;18.30;;;5.40;;
71038;SDS011;58692;43.212;27.908;2022-07-23T01:47:15;19.00;;;5.90;;
71038;SDS011;58692;43.212;27.908;2022-07-23T01:49:41;17.02;;;5.45;;
71038;SDS011;58692;43.212;27.908;2022-07-23T01:52:06;16.93;;;5.17;;
71038;SDS011;58692;43.212;27.908;2022-07-23T01:54:36;15.77;;;5.35;;
71038;SDS011;58692;43.212;27.908;2022-07-23T01:57:03;19.25;;;5.78;;
71038;SDS011;58692;43.212;27.908;2022-07-23T01:59:28;16.77;;;5.83;;
71038;SDS011;58692;43.212;27.908;2022-07-23T02:01:54;22.48;;;5.80;;
71038;SDS011;58692;43.212;27.908;2022-07-23T02:04:20;17.17;;;5.43;;
71038;SDS011;58692;43.212;27.908;2022-07-23T02:06:47;16.63;;;6.28;;
71038;SDS011;58692;43.212;27.908;2022-07-23T02:09:13;16.52;;;5.70;;
71038;SDS011;58692;43.212;27.908;2022-07-23T02:11:39;19.10;;;6.65;;
71038;SDS011;58692;43.212;27.908;2022-07-23T02:14:05;21.25;;;6.10;;
71038;SDS011;58692;43.212;27.908;2022-07-23T02:16:31;22.20;;;6.60;;
71038;SDS011;58692;43.212;27.908;2022-07-23T02:18:56;17.65;;;5.78;;
71038;SDS011;58692;43.212;27.908;2022-07-23T02:21:22;19.07;;;6.47;;
71038;SDS011;58692;43.212;27.908;2022-07-23T02:23:47;16.67;;;6.53;;
71038;SDS011;58692;43.212;27.908;2022-07-23T02:26:13;18.25;;;7.57;;
71038;SDS011;58692;43.212;27.908;2022-07-23T02:28:38;20.93;;;9.10;;
71038;SDS011;58692;43.212;27.908;2022-07-23T02:31:04;25.20;;;10.13;;
71038;SDS011;58692;43.212;27.908;2022-07-23T02:33:31;28.88;;;11.20;;
71038;SDS011;58692;43.212;27.908;2022-07-23T02:35:57;30.98;;;14.57;;
71038;SDS011;58692;43.212;27.908;2022-07-23T02:38:23;52.90;;;26.97;;
71038;SDS011;58692;43.212;27.908;2022-07-23T02:40:48;52.20;;;31.37;;
71038;SDS011;58692;43.212;27.908;2022-07-23T02:43:14;57.90;;;34.80;;
71038;SDS011;58692;43.212;27.908;2022-07-23T02:45:39;59.33;;;33.07;;
71038;SDS011;58692;43.212;27.908;2022-07-23T02:48:05;40.87;;;23.93;;
71038;SDS011;58692;43.212;27.908;2022-07-23T02:50:30;34.08;;;19.00;;
71038;SDS011;58692;43.212;27.908;2022-07-23T02:52:56;25.50;;;13.27;;
71038;SDS011;58692;43.212;27.908;2022-07-23T02:55:21;22.10;;;10.32;;
71038;SDS011;58692;43.212;27.908;2022-07-23T02:57:47;20.93;;;8.70;;
71038;SDS011;58692;43.212;27.908;2022-07-23T03:00:12;19.83;;;8.20;;
71038;SDS011;58692;43.212;27.908;2022-07-23T03:02:38;19.55;;;8.30;;
71038;SDS011;58692;43.212;27.908;2022-07-23T03:05:04;20.00;;;7.88;;
71038;SDS011;58692;43.212;27.908;2022-07-23T03:07:30;23.80;;;7.20;;
71038;SDS011;58692;43.212;27.908;2022-07-23T03:09:55;17.88;;;7.03;;
71038;SDS011;58692;43.212;27.908;2022-07-23T03:12:21;18.37;;;6.90;;
71038;SDS011;58692;43.212;27.908;2022-07-23T03:14:46;20.23;;;7.67;;
71038;SDS011;58692;43.212;27.908;2022-07-23T03:17:12;17.80;;;8.60;;
71038;SDS011;58692;43.212;27.908;2022-07-23T03:19:37;21.43;;;8.73;;
71038;SDS011;58692;43.212;27.908;2022-07-23T03:22:03;23.85;;;9.25;;
71038;SDS011;58692;43.212;27.908;2022-07-23T03:24:29;19.77;;;8.85;;
71038;SDS011;58692;43.212;27.908;2022-07-23T03:27:10;23.33;;;9.40;;
71038;SDS011;58692;43.212;27.908;2022-07-23T03:29:36;22.25;;;9.35;;
71038;SDS011;58692;43.212;27.908;2022-07-23T03:32:02;18.92;;;9.13;;
71038;SDS011;58692;43.212;27.908;2022-07-23T03:34:28;18.57;;;8.70;;
71038;SDS011;58692;43.212;27.908;2022-07-23T03:36:54;18.80;;;8.70;;
71038;SDS011;58692;43.212;27.908;2022-07-23T03:39:19;19.20;;;10.27;;
71038;SDS011;58692;43.212;27.908;2022-07-23T03:41:45;16.10;;;7.68;;
71038;SDS011;58692;43.212;27.908;2022-07-23T03:44:10;15.93;;;6.80;;
71038;SDS011;58692;43.212;27.908;2022-07-23T03:46:36;13.03;;;6.77;;
71038;SDS011;58692;43.212;27.908;2022-07-23T03:49:02;14.50;;;6.43;;
71038;SDS011;58692;43.212;27.908;2022-07-23T03:51:27;16.95;;;6.82;;
71038;SDS011;58692;43.212;27.908;2022-07-23T03:53:53;19.77;;;8.07;;
71038;SDS011;58692;43.212;27.908;2022-07-23T03:56:19;21.50;;;8.50;;
71038;SDS011;58692;43.212;27.908;2022-07-23T03:58:45;22.37;;;7.93;;
71038;SDS011;58692;43.212;27.908;2022-07-23T04:01:10;23.87;;;8.97;;
71038;SDS011;58692;43.212;27.908;2022-07-23T04:03:37;19.83;;;8.10;;
71038;SDS011;58692;43.212;27.908;2022-07-23T04:06:02;19.57;;;7.87;;
71038;SDS011;58692;43.212;27.908;2022-07-23T04:08:28;16.05;;;7.30;;
71038;SDS011;58692;43.212;27.908;2022-07-23T04:10:54;19.03;;;7.80;;
71038;SDS011;58692;43.212;27.908;2022-07-23T04:13:20;19.35;;;7.63;;
71038;SDS011;58692;43.212;27.908;2022-07-23T04:15:46;20.13;;;8.30;;
71038;SDS011;58692;43.212;27.908;2022-07-23T04:18:12;22.55;;;7.65;;
71038;SDS011;58692;43.212;27.908;2022-07-23T04:20:37;15.57;;;7.82;;
71038;SDS011;58692;43.212;27.908;2022-07-23T04:23:03;21.53;;;7.60;;
71038;SDS011;58692;43.212;27.908;2022-07-23T04:25:28;19.77;;;7.47;;
71038;SDS011;58692;43.212;27.908;2022-07-23T04:27:54;18.02;;;7.65;;
71038;SDS011;58692;43.212;27.908;2022-07-23T04:30:19;20.57;;;7.27;;
71038;SDS011;58692;43.212;27.908;2022-07-23T04:32:45;23.23;;;7.57;;
71038;SDS011;58692;43.212;27.908;2022-07-23T04:35:10;17.67;;;7.37;;
71038;SDS011;58692;43.212;27.908;2022-07-23T04:37:36;17.13;;;8.33;;
71038;SDS011;58692;43.212;27.908;2022-07-23T04:40:02;17.90;;;10.27;;
71038;SDS011;58692;43.212;27.908;2022-07-23T04:42:27;21.87;;;11.40;;
71038;SDS011;58692;43.212;27.908;2022-07-23T04:44:53;20.05;;;12.43;;
71038;SDS011;58692;43.212;27.908;2022-07-23T04:47:18;23.67;;;13.40;;
71038;SDS011;58692;43.212;27.908;2022-07-23T04:49:44;28.10;;;17.07;;
71038;SDS011;58692;43.212;27.908;2022-07-23T04:52:09;33.77;;;21.33;;
71038;SDS011;58692;43.212;27.908;2022-07-23T04:54:35;35.63;;;26.13;;
71038;SDS011;58692;43.212;27.908;2022-07-23T04:57:00;31.53;;;23.93;;
71038;SDS011;58692;43.212;27.908;2022-07-23T04:59:26;32.77;;;21.10;;
71038;SDS011;58692;43.212;27.908;2022-07-23T05:01:51;29.55;;;16.73;;
71038;SDS011;58692;43.212;27.908;2022-07-23T05:04:17;26.87;;;13.63;;
71038;SDS011;58692;43.212;27.908;2022-07-23T05:06:42;24.37;;;12.57;;
71038;SDS011;58692;43.212;27.908;2022-07-23T05:09:08;21.90;;;10.68;;
71038;SDS011;58692;43.212;27.908;2022-07-23T05:11:33;21.47;;;9.97;;
71038;SDS011;58692;43.212;27.908;2022-07-23T05:13:59;18.43;;;9.80;;
71038;SDS011;58692;43.212;27.908;2022-07-23T05:16:24;17.15;;;9.68;;
71038;SDS011;58692;43.212;27.908;2022-07-23T05:18:50;21.70;;;11.17;;
71038;SDS011;58692;43.212;27.908;2022-07-23T05:21:15;21.40;;;10.47;;
71038;SDS011;58692;43.212;27.908;2022-07-23T05:23:41;20.52;;;10.30;;
71038;SDS011;58692;43.212;27.908;2022-07-23T05:26:06;25.40;;;10.40;;
71038;SDS011;58692;43.212;27.908;2022-07-23T05:28:32;19.77;;;9.50;;
71038;SDS011;58692;43.212;27.908;2022-07-23T05:30:57;21.50;;;9.43;;
71038;SDS011;58692;43.212;27.908;2022-07-23T05:33:23;20.80;;;9.17;;
71038;SDS011;58692;43.212;27.908;2022-07-23T05:35:48;19.47;;;9.03;;
71038;SDS011;58692;43.212;27.908;2022-07-23T05:38:14;20.57;;;9.47;;
71038;SDS011;58692;43.212;27.908;2022-07-23T05:40:39;23.33;;;9.27;;
71038;SDS011;58692;43.212;27.908;2022-07-23T05:43:05;17.80;;;8.93;;
71038;SDS011;58692;43.212;27.908;2022-07-23T05:45:30;18.30;;;9.05;;
71038;SDS011;58692;43.212;27.908;2022-07-23T05:47:56;21.73;;;9.97;;
71038;SDS011;58692;43.212;27.908;2022-07-23T05:50:21;23.97;;;9.40;;
71038;SDS011;58692;43.212;27.908;2022-07-23T05:52:47;23.13;;;9.38;;
71038;SDS011;58692;43.212;27.908;2022-07-23T05:55:12;22.57;;;8.73;;
71038;SDS011;58692;43.212;27.908;2022-07-23T05:57:38;21.52;;;9.00;;
71038;SDS011;58692;43.212;27.908;2022-07-23T06:00:05;18.75;;;8.32;;
71038;SDS011;58692;43.212;27.908;2022-07-23T06:02:32;25.20;;;9.13;;
71038;SDS011;58692;43.212;27.908;2022-07-23T06:04:57;20.25;;;8.85;;
71038;SDS011;58692;43.212;27.908;2022-07-23T06:07:23;21.90;;;8.73;;
71038;SDS011;58692;43.212;27.908;2022-07-23T06:09:48;21.80;;;8.38;;
71038;SDS011;58692;43.212;27.908;2022-07-23T06:12:15;20.67;;;8.70;;
71038;SDS011;58692;43.212;27.908;2022-07-23T06:14:41;19.50;;;7.70;;
71038;SDS011;58692;43.212;27.908;2022-07-23T06:17:07;18.70;;;7.83;;
71038;SDS011;58692;43.212;27.908;2022-07-23T06:19:32;17.95;;;7.25;;
71038;SDS011;58692;43.212;27.908;2022-07-23T06:21:58;14.77;;;7.10;;
71038;SDS011;58692;43.212;27.908;2022-07-23T06:24:23;15.40;;;6.97;;
71038;SDS011;58692;43.212;27.908;2022-07-23T06:26:49;19.20;;;7.07;;
71038;SDS011;58692;43.212;27.908;2022-07-23T06:29:14;18.23;;;7.03;;
71038;SDS011;58692;43.212;27.908;2022-07-23T06:31:40;14.93;;;7.20;;
71038;SDS011;58692;43.212;27.908;2022-07-23T06:34:05;13.77;;;6.88;;
71038;SDS011;58692;43.212;27.908;2022-07-23T06:36:31;18.03;;;7.00;;
71038;SDS011;58692;43.212;27.908;2022-07-23T06:38:56;21.07;;;7.07;;
71038;SDS011;58692;43.212;27.908;2022-07-23T06:41:22;11.18;;;6.07;;
71038;SDS011;58692;43.212;27.908;2022-07-23T06:43:48;11.77;;;6.10;;
71038;SDS011;58692;43.212;27.908;2022-07-23T06:46:13;16.95;;;5.70;;
71038;SDS011;58692;43.212;27.908;2022-07-23T06:48:39;14.97;;;5.20;;
71038;SDS011;58692;43.212;27.908;2022-07-23T06:51:05;10.95;;;5.20;;
71038;SDS011;58692;43.212;27.908;2022-07-23T06:53:30;12.77;;;5.50;;
71038;SDS011;58692;43.212;27.908;2022-07-23T06:55:56;13.38;;;5.78;;
71038;SDS011;58692;43.212;27.908;2022-07-23T06:58:21;10.30;;;5.37;;
71038;SDS011;58692;43.212;27.908;2022-07-23T07:00:47;15.43;;;5.10;;
71038;SDS011;58692;43.212;27.908;2022-07-23T07:03:13;10.63;;;4.47;;
71038;SDS011;58692;43.212;27.908;2022-07-23T07:05:38;12.40;;;4.90;;
71038;SDS011;58692;43.212;27.908;2022-07-23T07:08:05;9.52;;;4.28;;
71038;SDS011;58692;43.212;27.908;2022-07-23T07:10:31;13.45;;;4.60;;
71038;SDS011;58692;43.212;27.908;2022-07-23T07:12:57;12.47;;;5.03;;
71038;SDS011;58692;43.212;27.908;2022-07-23T07:15:23;12.52;;;5.15;;
71038;SDS011;58692;43.212;27.908;2022-07-23T07:17:48;14.18;;;5.53;;
71038;SDS011;58692;43.212;27.908;2022-07-23T07:20:14;10.73;;;5.00;;
71038;SDS011;58692;43.212;27.908;2022-07-23T07:22:40;10.77;;;5.67;;
71038;SDS011;58692;43.212;27.908;2022-07-23T07:25:06;13.73;;;4.97;;
71038;SDS011;58692;43.212;27.908;2022-07-23T07:27:32;11.13;;;4.78;;
71038;SDS011;58692;43.212;27.908;2022-07-23T07:29:57;9.40;;;4.97;;
71038;SDS011;58692;43.212;27.908;2022-07-23T07:32:23;11.55;;;4.38;;
71038;SDS011;58692;43.212;27.908;2022-07-23T07:34:49;9.53;;;4.63;;
71038;SDS011;58692;43.212;27.908;2022-07-23T07:37:14;9.25;;;4.85;;
71038;SDS011;58692;43.212;27.908;2022-07-23T07:39:40;12.83;;;4.80;;
71038;SDS011;58692;43.212;27.908;2022-07-23T07:42:06;9.60;;;4.50;;
71038;SDS011;58692;43.212;27.908;2022-07-23T07:44:31;12.23;;;5.10;;
71038;SDS011;58692;43.212;27.908;2022-07-23T07:46:57;8.20;;;4.30;;
71038;SDS011;58692;43.212;27.908;2022-07-23T07:49:22;12.90;;;4.90;;
71038;SDS011;58692;43.212;27.908;2022-07-23T07:51:49;11.38;;;4.72;;
71038;SDS011;58692;43.212;27.908;2022-07-23T07:54:14;9.97;;;4.70;;
71038;SDS011;58692;43.212;27.908;2022-07-23T07:56:40;11.23;;;5.05;;
71038;SDS011;58692;43.212;27.908;2022-07-23T07:59:06;11.25;;;5.13;;
71038;SDS011;58692;43.212;27.908;2022-07-23T08:01:31;10.10;;;4.70;;
71038;SDS011;58692;43.212;27.908;2022-07-23T08:03:57;9.80;;;4.60;;
71038;SDS011;58692;43.212;27.908;2022-07-23T08:06:22;12.63;;;5.00;;
71038;SDS011;58692;43.212;27.908;2022-07-23T08:08:48;11.90;;;4.90;;
71038;SDS011;58692;43.212;27.908;2022-07-23T08:11:13;11.18;;;4.75;;
71038;SDS011;58692;43.212;27.908;2022-07-23T08:13:39;10.87;;;5.03;;
71038;SDS011;58692;43.212;27.908;2022-07-23T08:16:06;9.77;;;4.72;;
71038;SDS011;58692;43.212;27.908;2022-07-23T08:18:31;9.82;;;4.35;;
71038;SDS011;58692;43.212;27.908;2022-07-23T08:20:57;8.67;;;4.77;;
71038;SDS011;58692;43.212;27.908;2022-07-23T08:23:23;12.50;;;5.20;;
71038;SDS011;58692;43.212;27.908;2022-07-23T08:25:48;10.68;;;4.68;;
71038;SDS011;58692;43.212;27.908;2022-07-23T08:28:14;10.67;;;5.30;;
71038;SDS011;58692;43.212;27.908;2022-07-23T08:30:41;9.90;;;4.90;;
71038;SDS011;58692;43.212;27.908;2022-07-23T08:33:09;8.43;;;4.70;;
71038;SDS011;58692;43.212;27.908;2022-07-23T08:35:38;11.63;;;4.82;;
71038;SDS011;58692;43.212;27.908;2022-07-23T08:38:08;8.67;;;4.27;;
71038;SDS011;58692;43.212;27.908;2022-07-23T08:40:36;10.65;;;4.30;;
71038;SDS011;58692;43.212;27.908;2022-07-23T08:43:05;11.05;;;4.20;;
71038;SDS011;58692;43.212;27.908;2022-07-23T08:45:35;8.88;;;4.20;;
71038;SDS011;58692;43.212;27.908;2022-07-23T08:48:03;8.63;;;3.85;;
71038;SDS011;58692;43.212;27.908;2022-07-23T08:50:30;11.73;;;4.03;;
71038;SDS011;58692;43.212;27.908;2022-07-23T08:52:56;9.30;;;4.30;;
71038;SDS011;58692;43.212;27.908;2022-07-23T08:55:24;10.02;;;4.18;;
71038;SDS011;58692;43.212;27.908;2022-07-23T08:57:50;8.15;;;4.05;;
71038;SDS011;58692;43.212;27.908;2022-07-23T09:00:17;9.70;;;4.10;;
71038;SDS011;58692;43.212;27.908;2022-07-23T09:02:44;7.55;;;4.32;;
71038;SDS011;58692;43.212;27.908;2022-07-23T09:05:11;9.25;;;3.92;;
71038;SDS011;58692;43.212;27.908;2022-07-23T09:07:38;8.40;;;4.05;;
71038;SDS011;58692;43.212;27.908;2022-07-23T09:15:56;8.95;;;4.05;;
71038;SDS011;58692;43.212;27.908;2022-07-23T09:18:28;9.63;;;4.20;;
71038;SDS011;58692;43.212;27.908;2022-07-23T09:23:39;10.93;;;3.90;;
71038;SDS011;58692;43.212;27.908;2022-07-23T09:28:50;8.32;;;4.10;;
71038;SDS011;58692;43.212;27.908;2022-07-23T09:31:20;6.93;;;3.80;;
71038;SDS011;58692;43.212;27.908;2022-07-23T09:33:46;9.30;;;3.80;;
71038;SDS011;58692;43.212;27.908;2022-07-23T09:36:11;8.13;;;3.60;;
71038;SDS011;58692;43.212;27.908;2022-07-23T09:38:47;9.40;;;3.92;;
71038;SDS011;58692;43.212;27.908;2022-07-23T09:41:14;7.18;;;3.90;;
71038;SDS011;58692;43.212;27.908;2022-07-23T09:43:40;8.90;;;4.47;;
71038;SDS011;58692;43.212;27.908;2022-07-23T09:48:49;10.48;;;4.10;;
71038;SDS011;58692;43.212;27.908;2022-07-23T09:51:17;7.40;;;3.60;;
71038;SDS011;58692;43.212;27.908;2022-07-23T09:53:57;8.02;;;3.90;;
71038;SDS011;58692;43.212;27.908;2022-07-23T09:56:22;9.13;;;4.17;;
71038;SDS011;58692;43.212;27.908;2022-07-23T09:58:49;9.67;;;3.87;;
71038;SDS011;58692;43.212;27.908;2022-07-23T10:01:17;9.20;;;4.00;;
71038;SDS011;58692;43.212;27.908;2022-07-23T10:03:44;7.22;;;3.78;;
71038;SDS011;58692;43.212;27.908;2022-07-23T10:06:11;8.52;;;4.20;;
71038;SDS011;58692;43.212;27.908;2022-07-23T10:08:40;9.95;;;4.35;;
71038;SDS011;58692;43.212;27.908;2022-07-23T10:11:07;10.17;;;4.50;;
71038;SDS011;58692;43.212;27.908;2022-07-23T10:13:34;10.10;;;4.40;;
71038;SDS011;58692;43.212;27.908;2022-07-23T10:16:15;8.88;;;4.68;;
71038;SDS011;58692;43.212;27.908;2022-07-23T10:18:41;8.75;;;4.20;;
71038;SDS011;58692;43.212;27.908;2022-07-23T10:21:07;10.73;;;4.30;;
71038;SDS011;58692;43.212;27.908;2022-07-23T10:23:39;9.27;;;4.32;;
71038;SDS011;58692;43.212;27.908;2022-07-23T10:26:12;10.48;;;4.30;;
71038;SDS011;58692;43.212;27.908;2022-07-23T10:31:35;10.75;;;4.50;;
71038;SDS011;58692;43.212;27.908;2022-07-23T10:34:21;8.10;;;4.60;;
71038;SDS011;58692;43.212;27.908;2022-07-23T10:36:52;8.15;;;4.68;;
71038;SDS011;58692;43.212;27.908;2022-07-23T10:39:24;11.57;;;4.93;;
71038;SDS011;58692;43.212;27.908;2022-07-23T10:41:53;10.20;;;4.45;;
71038;SDS011;58692;43.212;27.908;2022-07-23T10:44:38;11.60;;;4.82;;
71038;SDS011;58692;43.212;27.908;2022-07-23T10:47:07;14.37;;;5.87;;
71038;SDS011;58692;43.212;27.908;2022-07-23T10:49:49;10.35;;;5.10;;
71038;SDS011;58692;43.212;27.908;2022-07-23T10:52:20;13.32;;;5.47;;
71038;SDS011;58692;43.212;27.908;2022-07-23T10:54:48;8.35;;;4.65;;
71038;SDS011;58692;43.212;27.908;2022-07-23T10:57:16;10.95;;;5.00;;
71038;SDS011;58692;43.212;27.908;2022-07-23T11:02:26;9.60;;;4.95;;
71038;SDS011;58692;43.212;27.908;2022-07-23T11:04:54;10.55;;;5.03;;
71038;SDS011;58692;43.212;27.908;2022-07-23T11:07:25;8.75;;;5.20;;
71038;SDS011;58692;43.212;27.908;2022-07-23T11:09:50;10.53;;;5.03;;
71038;SDS011;58692;43.212;27.908;2022-07-23T11:12:32;8.05;;;4.80;;
71038;SDS011;58692;43.212;27.908;2022-07-23T11:15:07;10.88;;;5.20;;
71038;SDS011;58692;43.212;27.908;2022-07-23T11:17:36;9.68;;;5.13;;
71038;SDS011;58692;43.212;27.908;2022-07-23T11:20:22;9.23;;;4.27;;
71038;SDS011;58692;43.212;27.908;2022-07-23T11:22:49;10.60;;;5.10;;
71038;SDS011;58692;43.212;27.908;2022-07-23T11:25:29;9.07;;;4.70;;
71038;SDS011;58692;43.212;27.908;2022-07-23T11:30:43;8.35;;;5.07;;
71038;SDS011;58692;43.212;27.908;2022-07-23T11:35:36;9.35;;;4.80;;
71038;SDS011;58692;43.212;27.908;2022-07-23T11:38:04;9.77;;;4.60;;
71038;SDS011;58692;43.212;27.908;2022-07-23T11:40:39;11.57;;;5.10;;
71038;SDS011;58692;43.212;27.908;2022-07-23T11:43:07;13.38;;;5.40;;
71038;SDS011;58692;43.212;27.908;2022-07-23T11:45:36;9.20;;;4.90;;
71038;SDS011;58692;43.212;27.908;2022-07-23T11:48:04;10.82;;;5.00;;
71038;SDS011;58692;43.212;27.908;2022-07-23T11:50:31;9.05;;;4.90;;
71038;SDS011;58692;43.212;27.908;2022-07-23T11:52:57;10.20;;;5.00;;
71038;SDS011;58692;43.212;27.908;2022-07-23T11:55:23;11.63;;;5.00;;
71038;SDS011;58692;43.212;27.908;2022-07-23T11:57:50;9.65;;;4.95;;
71038;SDS011;58692;43.212;27.908;2022-07-23T12:00:18;10.03;;;4.90;;
71038;SDS011;58692;43.212;27.908;2022-07-23T12:02:46;10.32;;;5.00;;
71038;SDS011;58692;43.212;27.908;2022-07-23T12:05:16;11.30;;;5.13;;
71038;SDS011;58692;43.212;27.908;2022-07-23T12:07:47;9.93;;;5.00;;
71038;SDS011;58692;43.212;27.908;2022-07-23T12:10:17;11.52;;;5.32;;
71038;SDS011;58692;43.212;27.908;2022-07-23T12:12:46;10.77;;;5.10;;
71038;SDS011;58692;43.212;27.908;2022-07-23T12:15:14;11.15;;;5.55;;
71038;SDS011;58692;43.212;27.908;2022-07-23T12:17:42;9.68;;;5.40;;
71038;SDS011;58692;43.212;27.908;2022-07-23T12:20:12;9.90;;;4.95;;
71038;SDS011;58692;43.212;27.908;2022-07-23T12:22:41;14.18;;;5.40;;
71038;SDS011;58692;43.212;27.908;2022-07-23T12:25:10;10.93;;;5.40;;
71038;SDS011;58692;43.212;27.908;2022-07-23T12:27:37;9.90;;;4.97;;
71038;SDS011;58692;43.212;27.908;2022-07-23T12:32:46;11.27;;;5.57;;
71038;SDS011;58692;43.212;27.908;2022-07-23T12:35:14;12.10;;;5.27;;
71038;SDS011;58692;43.212;27.908;2022-07-23T12:37:41;9.80;;;5.07;;
71038;SDS011;58692;43.212;27.908;2022-07-23T12:42:52;9.68;;;5.05;;
71038;SDS011;58692;43.212;27.908;2022-07-23T12:45:19;10.23;;;4.88;;
71038;SDS011;58692;43.212;27.908;2022-07-23T12:47:53;10.17;;;4.93;;
71038;SDS011;58692;43.212;27.908;2022-07-23T12:53:19;10.95;;;5.07;;
71038;SDS011;58692;43.212;27.908;2022-07-23T12:55:45;12.32;;;4.97;;
71038;SDS011;58692;43.212;27.908;2022-07-23T12:58:15;11.30;;;5.13;;
71038;SDS011;58692;43.212;27.908;2022-07-23T13:03:30;8.27;;;4.57;;
71038;SDS011;58692;43.212;27.908;2022-07-23T13:05:56;11.98;;;5.10;;
71038;SDS011;58692;43.212;27.908;2022-07-23T13:08:23;9.48;;;5.20;;
71038;SDS011;58692;43.212;27.908;2022-07-23T13:10:50;11.97;;;5.00;;
71038;SDS011;58692;43.212;27.908;2022-07-23T13:13:17;9.50;;;4.70;;
71038;SDS011;58692;43.212;27.908;2022-07-23T13:15:46;10.15;;;5.00;;
71038;SDS011;58692;43.212;27.908;2022-07-23T13:18:12;9.15;;;4.50;;
71038;SDS011;58692;43.212;27.908;2022-07-23T13:20:37;8.77;;;4.60;;
71038;SDS011;58692;43.212;27.908;2022-07-23T13:23:05;9.52;;;5.28;;
71038;SDS011;58692;43.212;27.908;2022-07-23T13:25:31;9.07;;;4.68;;
71038;SDS011;58692;43.212;27.908;2022-07-23T13:27:56;11.20;;;5.07;;
71038;SDS011;58692;43.212;27.908;2022-07-23T13:30:22;12.00;;;5.07;;
71038;SDS011;58692;43.212;27.908;2022-07-23T13:32:48;9.63;;;4.60;;
71038;SDS011;58692;43.212;27.908;2022-07-23T13:35:14;10.45;;;5.20;;
71038;SDS011;58692;43.212;27.908;2022-07-23T13:37:40;10.57;;;4.80;;
71038;SDS011;58692;43.212;27.908;2022-07-23T13:40:05;11.38;;;5.18;;
71038;SDS011;58692;43.212;27.908;2022-07-23T13:42:31;10.10;;;4.90;;
71038;SDS011;58692;43.212;27.908;2022-07-23T13:44:57;11.00;;;5.27;;
71038;SDS011;58692;43.212;27.908;2022-07-23T13:47:23;9.73;;;5.10;;
71038;SDS011;58692;43.212;27.908;2022-07-23T13:49:48;10.73;;;5.28;;
71038;SDS011;58692;43.212;27.908;2022-07-23T13:52:14;11.60;;;5.47;;
71038;SDS011;58692;43.212;27.908;2022-07-23T13:54:40;11.00;;;5.22;;
71038;SDS011;58692;43.212;27.908;2022-07-23T13:57:05;9.40;;;4.43;;
71038;SDS011;58692;43.212;27.908;2022-07-23T13:59:31;10.15;;;5.18;;
71038;SDS011;58692;43.212;27.908;2022-07-23T14:01:56;12.20;;;4.53;;
71038;SDS011;58692;43.212;27.908;2022-07-23T14:04:22;10.97;;;4.17;;
71038;SDS011;58692;43.212;27.908;2022-07-23T14:06:48;8.65;;;4.35;;
71038;SDS011;58692;43.212;27.908;2022-07-23T14:09:13;7.10;;;4.20;;
71038;SDS011;58692;43.212;27.908;2022-07-23T14:11:39;9.23;;;4.80;;
71038;SDS011;58692;43.212;27.908;2022-07-23T14:14:04;12.17;;;4.50;;
71038;SDS011;58692;43.212;27.908;2022-07-23T14:16:30;8.63;;;4.37;;
71038;SDS011;58692;43.212;27.908;2022-07-23T14:18:56;11.70;;;4.47;;
71038;SDS011;58692;43.212;27.908;2022-07-23T14:21:21;9.43;;;4.30;;
71038;SDS011;58692;43.212;27.908;2022-07-23T14:23:47;9.40;;;4.23;;
71038;SDS011;58692;43.212;27.908;2022-07-23T14:26:13;12.30;;;4.90;;
71038;SDS011;58692;43.212;27.908;2022-07-23T14:28:39;9.40;;;4.57;;
71038;SDS011;58692;43.212;27.908;2022-07-23T14:31:04;9.00;;;4.50;;
71038;SDS011;58692;43.212;27.908;2022-07-23T14:33:30;9.10;;;4.50;;
71038;SDS011;58692;43.212;27.908;2022-07-23T14:35:55;9.93;;;4.72;;
71038;SDS011;58692;43.212;27.908;2022-07-23T14:38:21;7.93;;;4.70;;
71038;SDS011;58692;43.212;27.908;2022-07-23T14:40:46;7.10;;;4.37;;
71038;SDS011;58692;43.212;27.908;2022-07-23T14:43:12;11.15;;;4.88;;
71038;SDS011;58692;43.212;27.908;2022-07-23T14:45:38;9.60;;;4.70;;
71038;SDS011;58692;43.212;27.908;2022-07-23T14:48:04;12.82;;;5.15;;
71038;SDS011;58692;43.212;27.908;2022-07-23T14:50:30;11.45;;;5.00;;
71038;SDS011;58692;43.212;27.908;2022-07-23T14:52:58;10.65;;;4.90;;
71038;SDS011;58692;43.212;27.908;2022-07-23T14:55:23;11.17;;;5.40;;